createdAt,value
2023-04-01T00:01:17.584Z,6.00
2023-04-01T00:03:45.913Z,7.00
2023-04-01T00:06:16.326Z,5.00
2023-04-01T00:08:45.477Z,4.00
2023-04-01T00:11:13.796Z,6.00
2023-04-01T00:13:42.619Z,4.00
2023-04-01T00:16:21.047Z,7.00
2023-04-01T00:18:51.803Z,9.00
2023-04-01T00:21:21.425Z,8.67
2023-04-01T00:23:51.009Z,6.00
2023-04-01T00:26:21.517Z,6.00
2023-04-01T00:28:50.293Z,5.00
2023-04-01T00:31:18.370Z,8.00
2023-04-01T00:33:46.897Z,10.50
2023-04-01T00:36:20.622Z,9.50
2023-04-01T00:38:48.624Z,13.00
2023-04-01T00:41:18.242Z,12.50
2023-04-01T00:43:49.069Z,8.00
2023-04-01T00:46:17.193Z,8.00
2023-04-01T00:48:50.760Z,7.00
2023-04-01T00:51:24.777Z,8.50
2023-04-01T00:53:56.953Z,10.00
2023-04-01T00:56:52.494Z,11.50
2023-04-01T00:59:25.880Z,9.00
2023-04-01T01:01:54.261Z,10.00
2023-04-01T01:04:26.671Z,11.00
2023-04-01T01:07:01.384Z,14.00
2023-04-01T01:09:44.634Z,13.00
2023-04-01T01:12:28.324Z,13.00
2023-04-01T01:15:25.463Z,13.00
2023-04-01T01:18:05.134Z,8.00
2023-04-01T01:20:59.351Z,15.00
2023-04-01T01:23:30.161Z,12.00
2023-04-01T01:26:33.488Z,14.50
2023-04-01T01:29:26.425Z,11.00
2023-04-01T01:32:03.534Z,11.00
2023-04-01T01:34:41.124Z,15.00
2023-04-01T01:37:18.693Z,16.00
2023-04-01T01:39:52.798Z,14.50
2023-04-01T01:42:24.056Z,15.00
2023-04-01T01:44:54.835Z,17.00
2023-04-01T01:47:24.114Z,17.00
2023-04-01T01:49:54.191Z,18.00
2023-04-01T01:52:23.794Z,16.00
2023-04-01T01:54:54.066Z,17.00
2023-04-01T01:57:30.712Z,17.00
2023-04-01T02:00:20.876Z,15.00
2023-04-01T02:05:24.634Z,16.00
2023-04-01T02:08:03.847Z,21.00
2023-04-01T02:10:36.845Z,19.00
2023-04-01T02:13:14.553Z,14.50
2023-04-01T02:15:48.583Z,16.00
2023-04-01T02:18:19.962Z,13.50
2023-04-01T02:20:48.630Z,11.33
2023-04-01T02:23:17.093Z,17.00
2023-04-01T02:25:47.429Z,15.00
2023-04-01T02:28:20.953Z,14.00
2023-04-01T02:30:51.325Z,16.00
2023-04-01T02:33:21.464Z,14.00
2023-04-01T02:35:49.523Z,16.50
2023-04-01T02:38:17.605Z,16.00
2023-04-01T02:40:48.871Z,21.00
2023-04-01T02:43:17.519Z,19.50
2023-04-01T02:45:45.709Z,19.00
2023-04-01T02:48:15.158Z,16.00
2023-04-01T02:50:43.333Z,21.00
2023-04-01T02:53:11.499Z,17.00
2023-04-01T02:55:39.615Z,16.50
2023-04-01T02:58:07.760Z,10.50
2023-04-01T03:00:36.214Z,17.00
2023-04-01T03:03:04.591Z,15.00
2023-04-01T03:05:32.845Z,10.00
2023-04-01T03:08:01.334Z,15.00
2023-04-01T03:10:29.525Z,10.00
2023-04-01T03:12:57.642Z,10.00
2023-04-01T03:15:25.663Z,13.00
2023-04-01T03:17:53.581Z,15.00
2023-04-01T03:20:21.662Z,11.50
2023-04-01T03:22:49.658Z,15.00
2023-04-01T03:25:18.764Z,14.00
2023-04-01T03:27:46.686Z,12.50
2023-04-01T03:30:14.951Z,10.00
2023-04-01T03:32:47.874Z,16.50
2023-04-01T03:35:16.285Z,22.00
2023-04-01T03:37:44.417Z,17.00
2023-04-01T03:40:12.666Z,19.00
2023-04-01T03:42:40.800Z,19.50
2023-04-01T03:45:10.256Z,17.00
2023-04-01T03:47:38.231Z,15.00
2023-04-01T03:50:07.965Z,15.00
2023-04-01T03:52:35.989Z,6.50
2023-04-01T03:55:04.676Z,12.50
2023-04-01T03:57:33.135Z,11.00
2023-04-01T04:00:03.850Z,13.50
2023-04-01T04:02:41.959Z,13.00
2023-04-01T04:05:11.942Z,9.50
2023-04-01T04:07:39.965Z,9.50
2023-04-01T04:10:10.108Z,15.00
2023-04-01T04:12:38.155Z,12.00
2023-04-01T04:15:06.816Z,11.50
2023-04-01T04:17:34.752Z,12.00
2023-04-01T04:20:03.682Z,15.00
2023-04-01T04:22:31.713Z,9.50
2023-04-01T04:24:59.662Z,19.50
2023-04-01T04:27:28.295Z,12.00
2023-04-01T04:30:08.001Z,16.00
2023-04-01T04:32:36.770Z,19.00
2023-04-01T04:35:07.555Z,21.00
2023-04-01T04:37:35.792Z,19.00
2023-04-01T04:40:03.868Z,21.00
2023-04-01T04:42:32.365Z,20.00
2023-04-01T04:45:05.872Z,20.00
2023-04-01T04:47:34.117Z,19.00
2023-04-01T04:50:02.072Z,21.50
2023-04-01T04:52:30.044Z,16.50
2023-04-01T04:54:58.135Z,14.00
2023-04-01T04:57:26.200Z,17.50
2023-04-01T04:59:56.689Z,17.00
2023-04-01T05:05:07.690Z,16.00
2023-04-01T05:07:35.685Z,15.00
2023-04-01T05:10:04.023Z,17.00
2023-04-01T05:12:33.825Z,19.00
2023-04-01T05:15:06.039Z,17.00
2023-04-01T05:17:34.221Z,20.00
2023-04-01T05:20:02.775Z,17.00
2023-04-01T05:22:31.363Z,21.00
2023-04-01T05:24:59.293Z,17.00
2023-04-01T05:27:27.388Z,20.00
2023-04-01T05:29:55.364Z,15.50
2023-04-01T05:33:13.406Z,21.00
2023-04-01T05:35:42.305Z,13.50
2023-04-01T05:38:10.589Z,10.50
2023-04-01T05:40:38.618Z,11.00
2023-04-01T05:43:06.574Z,14.00
2023-04-01T05:45:35.718Z,13.50
2023-04-01T05:48:36.152Z,12.00
2023-04-01T05:51:05.375Z,14.50
2023-04-01T05:53:33.367Z,15.50
2023-04-01T05:56:05.402Z,14.00
2023-04-01T05:58:37.326Z,11.50
2023-04-01T06:01:11.519Z,13.50
2023-04-01T06:03:44.366Z,15.00
2023-04-01T06:06:20.891Z,10.00
2023-04-01T06:08:49.995Z,15.00
2023-04-01T06:11:30.384Z,11.00
2023-04-01T06:14:06.793Z,16.00
2023-04-01T06:16:59.227Z,13.00
2023-04-01T06:19:33.252Z,10.00
2023-04-01T06:22:33.724Z,14.00
2023-04-01T06:25:31.947Z,9.50
2023-04-01T06:28:03.261Z,12.00
2023-04-01T06:30:52.794Z,9.50
2023-04-01T06:33:45.378Z,15.50
2023-04-01T06:36:27.593Z,12.00
2023-04-01T06:39:09.709Z,10.00
2023-04-01T06:42:00.248Z,11.00
2023-04-01T06:44:49.683Z,12.50
2023-04-01T06:47:48.542Z,11.00
2023-04-01T06:50:50.155Z,13.00
2023-04-01T06:53:45.918Z,14.00
2023-04-01T06:56:56.792Z,26.50
2023-04-01T06:59:32.840Z,21.00
2023-04-01T07:02:16.739Z,19.00
2023-04-01T07:07:30.518Z,26.00
2023-04-01T07:10:07.401Z,24.50
2023-04-01T07:12:45.579Z,28.00
2023-04-01T07:15:42.275Z,18.00
2023-04-01T07:18:39.047Z,19.00
2023-04-01T07:21:23.294Z,22.00
2023-04-01T07:23:55.876Z,16.00
2023-04-01T07:26:57.103Z,24.00
2023-04-01T07:29:28.984Z,19.00
2023-04-01T07:32:26.352Z,18.50
2023-04-01T07:35:25.580Z,17.50
2023-04-01T07:38:09.069Z,27.00
2023-04-01T07:41:06.056Z,11.00
2023-04-01T07:43:45.411Z,30.00
2023-04-01T07:47:00.160Z,35.00
2023-04-01T07:50:00.745Z,33.00
2023-04-01T07:53:27.144Z,22.50
2023-04-01T07:56:16.793Z,20.00
2023-04-01T07:58:57.597Z,18.00
2023-04-01T08:01:51.984Z,19.00
2023-04-01T08:04:44.280Z,15.00
2023-04-01T08:07:26.560Z,21.00
2023-04-01T08:10:51.555Z,14.50
2023-04-01T08:14:06.975Z,12.00
2023-04-01T08:17:03.614Z,14.00
2023-04-01T08:19:40.949Z,11.00
2023-04-01T08:22:21.101Z,8.00
2023-04-01T08:24:52.027Z,15.50
2023-04-01T08:30:17.432Z,12.00
2023-04-01T08:33:10.919Z,8.50
2023-04-01T08:35:47.968Z,14.00
2023-04-01T08:38:27.694Z,12.00
2023-04-01T08:41:12.576Z,11.00
2023-04-01T08:44:39.465Z,12.00
2023-04-01T08:47:10.680Z,9.00
2023-04-01T08:49:58.296Z,6.00
2023-04-01T08:53:16.419Z,8.50
2023-04-01T08:55:48.217Z,7.00
2023-04-01T08:58:48.468Z,7.00
2023-04-01T09:01:54.344Z,7.00
2023-04-01T09:05:01.509Z,6.00
2023-04-01T09:07:43.679Z,7.00
2023-04-01T09:10:41.393Z,13.00
2023-04-01T09:13:51.545Z,12.00
2023-04-01T09:16:31.756Z,12.00
2023-04-01T09:19:25.895Z,31.00
2023-04-01T09:22:18.062Z,14.00
2023-04-01T09:25:11.244Z,15.00
2023-04-01T09:28:17.738Z,11.00
2023-04-01T09:31:29.879Z,12.50
2023-04-01T09:34:41.625Z,15.00
2023-04-01T09:37:26.366Z,10.00
2023-04-01T09:40:12.840Z,10.00
2023-04-01T09:43:03.058Z,9.50
2023-04-01T09:46:10.366Z,11.00
2023-04-01T09:48:57.132Z,8.00
2023-04-01T09:52:06.573Z,12.00
2023-04-01T09:54:56.705Z,6.00
2023-04-01T09:58:23.211Z,10.00
2023-04-01T10:01:12.302Z,15.00
2023-04-01T10:03:59.202Z,22.00
2023-04-01T10:06:59.354Z,21.00
2023-04-01T10:09:47.069Z,46.00
2023-04-01T10:12:33.365Z,24.00
2023-04-01T10:15:36.314Z,14.00
2023-04-01T10:18:12.109Z,15.00
2023-04-01T10:21:03.749Z,11.00
2023-04-01T10:24:03.205Z,12.00
2023-04-01T10:26:44.057Z,17.00
2023-04-01T10:29:59.391Z,15.67
2023-04-01T10:32:30.570Z,14.00
2023-04-01T10:35:23.181Z,10.00
2023-04-01T10:37:54.510Z,26.00
2023-04-01T10:40:56.625Z,24.00
2023-04-01T10:44:18.157Z,8.50
2023-04-01T10:47:14.216Z,6.00
2023-04-01T10:50:20.573Z,7.00
2023-04-01T10:53:16.870Z,7.00
2023-04-01T10:56:35.099Z,9.00
2023-04-01T10:59:52.874Z,5.67
2023-04-01T11:03:04.522Z,8.00
2023-04-01T11:06:29.720Z,4.00
2023-04-01T11:09:19.789Z,7.50
2023-04-01T11:12:16.782Z,7.00
2023-04-01T11:14:54.100Z,8.00
2023-04-01T11:17:56.722Z,11.00
2023-04-01T11:20:53.009Z,5.00
2023-04-01T11:24:03.998Z,11.00
2023-04-01T11:26:52.925Z,22.00
2023-04-01T11:30:00.262Z,35.50
2023-04-01T11:32:54.507Z,12.00
2023-04-01T11:35:47.385Z,15.00
2023-04-01T11:38:21.440Z,12.00
2023-04-01T11:41:29.605Z,9.00
2023-04-01T11:44:44.786Z,8.00
2023-04-01T11:47:53.058Z,10.00
2023-04-01T11:50:42.692Z,9.00
2023-04-01T11:53:35.775Z,9.00
2023-04-01T11:56:43.902Z,6.00
2023-04-01T11:59:56.666Z,6.00
2023-04-01T12:03:22.164Z,6.50
2023-04-01T12:06:00.803Z,6.00
2023-04-01T12:08:31.623Z,6.00
2023-04-01T12:11:36.872Z,6.00
2023-04-01T12:14:51.464Z,3.00
2023-04-01T12:17:51.963Z,5.00
2023-04-01T12:20:31.058Z,7.50
2023-04-01T12:23:25.538Z,9.50
2023-04-01T12:26:29.239Z,21.50
2023-04-01T12:28:57.081Z,19.00
2023-04-01T12:31:50.198Z,15.00
2023-04-01T12:34:24.444Z,12.00
2023-04-01T12:37:06.151Z,19.00
2023-04-01T12:39:43.472Z,14.33
2023-04-01T12:42:33.948Z,14.50
2023-04-01T12:45:33.013Z,15.00
2023-04-01T12:48:24.359Z,10.00
2023-04-01T12:51:16.914Z,6.00
2023-04-01T12:53:47.480Z,13.00
2023-04-01T12:56:53.827Z,16.00
2023-04-01T12:59:56.287Z,8.00
2023-04-01T13:02:47.479Z,5.50
2023-04-01T13:05:45.255Z,5.00
2023-04-01T13:08:50.426Z,3.00
2023-04-01T13:11:26.917Z,3.00
2023-04-01T13:14:03.924Z,5.50
2023-04-01T13:16:40.063Z,5.00
2023-04-01T13:19:22.959Z,3.50
2023-04-01T13:22:08.309Z,4.00
2023-04-01T13:24:56.193Z,1.00
2023-04-01T13:27:44.614Z,4.67
2023-04-01T13:30:32.170Z,5.00
2023-04-01T13:33:20.512Z,4.00
2023-04-01T13:35:57.636Z,6.00
2023-04-01T13:38:56.624Z,5.00
2023-04-01T13:41:35.819Z,4.50
2023-04-01T13:44:34.239Z,5.00
2023-04-01T13:47:19.128Z,6.00
2023-04-01T13:50:29.505Z,8.50
2023-04-01T13:53:03.661Z,5.00
2023-04-01T13:58:23.949Z,9.50
2023-04-01T14:01:21.318Z,7.00
2023-04-01T14:03:55.412Z,6.00
2023-04-01T14:06:41.918Z,3.00
2023-04-01T14:09:21.938Z,4.33
2023-04-01T14:12:27.158Z,5.00
2023-04-01T14:15:01.154Z,5.50
2023-04-01T14:17:45.882Z,10.00
2023-04-01T14:20:39.194Z,7.00
2023-04-01T14:23:29.143Z,4.50
2023-04-01T14:26:17.049Z,7.00
2023-04-01T14:28:51.366Z,8.00
2023-04-01T14:31:38.166Z,6.00
2023-04-01T14:34:47.932Z,6.00
2023-04-01T14:37:40.386Z,20.00
2023-04-01T14:40:28.525Z,17.00
2023-04-01T14:43:44.829Z,16.67
2023-04-01T14:46:36.021Z,22.00
2023-04-01T14:51:48.135Z,22.00
2023-04-01T14:54:26.221Z,22.00
2023-04-01T15:00:09.965Z,23.50
2023-04-01T15:02:43.677Z,15.50
2023-04-01T15:05:16.774Z,16.00
2023-04-01T15:08:07.235Z,12.00
2023-04-01T15:10:51.080Z,11.00
2023-04-01T15:13:38.649Z,8.00
2023-04-01T15:16:21.008Z,8.00
2023-04-01T15:19:07.735Z,5.00
2023-04-01T15:21:48.076Z,12.00
2023-04-01T15:24:24.960Z,12.00
2023-04-01T15:27:10.595Z,12.00
2023-04-01T15:33:07.983Z,13.50
2023-04-01T15:35:53.944Z,16.00
2023-04-01T15:38:48.351Z,10.00
2023-04-01T15:41:41.625Z,7.00
2023-04-01T15:44:31.654Z,7.00
2023-04-01T15:46:59.800Z,7.00
2023-04-01T15:49:33.901Z,7.00
2023-04-01T15:52:23.828Z,7.00
2023-04-01T15:55:07.480Z,9.00
2023-04-01T16:00:43.805Z,8.00
2023-04-01T16:03:23.981Z,12.00
2023-04-01T16:09:16.886Z,20.00
2023-04-01T16:12:10.848Z,15.00
2023-04-01T16:15:00.954Z,11.00
2023-04-01T16:17:41.341Z,20.00
2023-04-01T16:20:25.787Z,27.50
2023-04-01T16:22:58.750Z,19.00
2023-04-01T16:25:50.912Z,15.00
2023-04-01T16:28:24.892Z,7.00
2023-04-01T16:31:01.506Z,17.00
2023-04-01T16:33:51.203Z,15.00
2023-04-01T16:36:51.575Z,13.50
2023-04-01T16:39:27.355Z,12.00
2023-04-01T16:42:07.325Z,12.50
2023-04-01T16:45:17.523Z,10.50
2023-04-01T16:47:54.078Z,19.00
2023-04-01T16:50:24.618Z,17.00
2023-04-01T16:53:12.688Z,13.00
2023-04-01T16:55:58.034Z,10.00
2023-04-01T16:58:43.601Z,15.00
2023-04-01T17:03:54.958Z,7.00
2023-04-01T17:06:51.938Z,10.50
2023-04-01T17:09:49.884Z,12.50
2023-04-01T17:12:46.361Z,8.50
2023-04-01T17:15:27.555Z,7.00
2023-04-01T17:18:20.571Z,9.00
2023-04-01T17:21:01.005Z,11.00
2023-04-01T17:23:55.847Z,15.00
2023-04-01T17:26:32.800Z,21.00
2023-04-01T17:29:26.006Z,23.00
2023-04-01T17:32:05.272Z,30.67
2023-04-01T17:35:19.984Z,23.00
2023-04-01T17:37:53.639Z,17.00
2023-04-01T17:40:33.272Z,15.00
2023-04-01T17:43:15.924Z,13.00
2023-04-01T17:46:05.630Z,17.00
2023-04-01T17:48:39.847Z,19.50
2023-04-01T17:51:16.755Z,12.00
2023-04-01T17:54:02.990Z,14.50
2023-04-01T17:56:36.612Z,11.00
2023-04-01T17:59:23.044Z,15.50
2023-04-01T18:02:25.458Z,14.00
2023-04-01T18:08:20.893Z,23.00
2023-04-01T18:10:54.533Z,23.50
2023-04-01T18:13:22.453Z,28.00
2023-04-01T18:16:15.496Z,26.00
2023-04-01T18:19:02.333Z,29.00
2023-04-01T18:21:50.613Z,27.00
2023-04-01T18:24:27.859Z,27.00
2023-04-01T18:27:03.423Z,27.00
2023-04-01T18:29:52.761Z,27.00
2023-04-01T18:32:32.900Z,29.00
2023-04-01T18:35:17.232Z,37.00
2023-04-01T18:37:50.734Z,19.00
2023-04-01T18:40:26.658Z,29.00
2023-04-01T18:43:03.655Z,35.50
2023-04-01T18:46:03.186Z,29.00
2023-04-01T18:48:41.127Z,32.00
2023-04-01T18:51:20.185Z,24.00
2023-04-01T18:54:00.111Z,29.00
2023-04-01T18:56:43.020Z,26.00
2023-04-01T18:59:29.534Z,22.00
2023-04-01T19:02:19.885Z,29.00
2023-04-01T19:05:02.530Z,27.00
2023-04-01T19:07:56.233Z,23.50
2023-04-01T19:11:02.994Z,27.50
2023-04-01T19:13:55.893Z,21.33
2023-04-01T19:16:44.936Z,18.00
2023-04-01T19:19:31.713Z,15.00
2023-04-01T19:22:03.682Z,10.00
2023-04-01T19:24:40.380Z,10.00
2023-04-01T19:27:37.678Z,13.00
2023-04-01T19:30:26.003Z,13.00
2023-04-01T19:33:09.270Z,19.00
2023-04-01T19:35:48.545Z,26.00
2023-04-01T19:38:40.329Z,22.00
2023-04-01T19:41:49.501Z,18.50
2023-04-01T19:44:24.498Z,19.00
2023-04-01T19:47:25.101Z,22.00
2023-04-01T19:50:02.817Z,20.00
2023-04-01T19:52:36.729Z,22.00
2023-04-01T19:55:34.436Z,16.50
2023-04-01T19:58:06.873Z,23.00
2023-04-01T20:00:41.497Z,19.00
2023-04-01T20:03:34.752Z,22.00
2023-04-01T20:06:32.376Z,20.00
2023-04-01T20:09:25.882Z,15.00
2023-04-01T20:12:01.229Z,18.00
2023-04-01T20:14:50.017Z,18.00
2023-04-01T20:17:40.301Z,24.00
2023-04-01T20:22:46.568Z,15.00
2023-04-01T20:25:39.508Z,19.50
2023-04-01T20:28:13.615Z,20.00
2023-04-01T20:31:24.686Z,13.00
2023-04-01T20:34:20.717Z,6.00
2023-04-01T20:37:00.849Z,19.00
2023-04-01T20:39:49.847Z,15.00
2023-04-01T20:42:30.324Z,16.00
2023-04-01T20:45:22.882Z,19.00
2023-04-01T20:48:12.742Z,12.00
2023-04-01T20:51:11.865Z,15.00
2023-04-01T20:54:12.869Z,17.00
2023-04-01T20:56:46.797Z,14.50
2023-04-01T20:59:48.518Z,13.00
2023-04-01T21:02:41.545Z,15.00
2023-04-01T21:05:29.677Z,13.00
2023-04-01T21:08:18.022Z,17.50
2023-04-01T21:11:09.222Z,15.50
2023-04-01T21:13:47.482Z,17.50
2023-04-01T21:16:29.671Z,13.00
2023-04-01T21:19:19.942Z,24.00
2023-04-01T21:22:17.686Z,25.00
2023-04-01T21:25:27.505Z,17.00
2023-04-01T21:28:21.798Z,15.00
2023-04-01T21:30:59.697Z,13.00
2023-04-01T21:33:36.415Z,17.00
2023-04-01T21:36:42.064Z,20.50
2023-04-01T21:39:40.861Z,17.50
2023-04-01T21:42:39.628Z,20.00
2023-04-01T21:45:20.798Z,25.00
2023-04-01T21:48:07.122Z,19.00
2023-04-01T21:50:53.748Z,21.00
2023-04-01T21:53:43.156Z,21.00
2023-04-01T21:56:34.322Z,20.00
2023-04-01T21:59:40.211Z,13.00
2023-04-01T22:02:40.708Z,19.00
2023-04-01T22:05:18.044Z,17.50
2023-04-01T22:08:07.695Z,16.50
2023-04-01T22:10:35.589Z,18.00
2023-04-01T22:13:14.702Z,18.00
2023-04-01T22:15:50.854Z,23.50
2023-04-01T22:18:35.168Z,25.00
2023-04-01T22:21:14.641Z,20.50
2023-04-01T22:24:12.124Z,20.00
2023-04-01T22:27:15.704Z,22.00
2023-04-01T22:29:59.137Z,21.50
2023-04-01T22:32:36.772Z,27.00
2023-04-01T22:35:13.865Z,16.00
2023-04-01T22:37:53.145Z,22.00
2023-04-01T22:40:24.491Z,17.00
2023-04-01T22:43:14.078Z,25.00
2023-04-01T22:48:48.941Z,15.00
2023-04-01T22:51:42.630Z,17.00
2023-04-01T22:54:13.744Z,14.00
2023-04-01T22:56:47.699Z,21.50
2023-04-01T23:00:29.490Z,22.00
2023-04-01T23:03:22.968Z,22.50
2023-04-01T23:08:47.205Z,24.00
2023-04-01T23:11:23.416Z,25.00
2023-04-01T23:14:27.834Z,25.00
2023-04-01T23:17:11.111Z,20.00
2023-04-01T23:19:51.101Z,24.00
2023-04-01T23:22:39.653Z,21.00
2023-04-01T23:25:57.328Z,19.50
2023-04-01T23:28:55.663Z,18.00
2023-04-01T23:34:14.752Z,18.50
2023-04-01T23:36:48.833Z,22.00
2023-04-01T23:39:37.748Z,19.00
2023-04-01T23:42:26.874Z,20.00
2023-04-01T23:44:58.366Z,26.00
2023-04-01T23:47:32.498Z,27.00
2023-04-01T23:50:19.699Z,22.00
2023-04-01T23:52:53.157Z,20.00
2023-04-01T23:55:32.817Z,21.00
2023-04-01T23:58:07.186Z,23.00
